sensor_id;sensor_type;location;lat;lon;timestamp;P1;durP1;ratioP1;P2;durP2;ratioP2
5845;SDS011;2949;50.778;7.094;2023-09-18T00:00:13;7.87;;;5.17;;
5845;SDS011;2949;50.778;7.094;2023-09-18T00:02:39;9.23;;;5.40;;
5845;SDS011;2949;50.778;7.094;2023-09-18T00:05:05;15.73;;;5.53;;
5845;SDS011;2949;50.778;7.094;2023-09-18T00:07:31;9.93;;;5.67;;
5845;SDS011;2949;50.778;7.094;2023-09-18T00:09:56;11.87;;;5.20;;
5845;SDS011;2949;50.778;7.094;2023-09-18T00:12:21;11.90;;;5.70;;
5845;SDS011;2949;50.778;7.094;2023-09-18T00:14:48;11.10;;;5.23;;
5845;SDS011;2949;50.778;7.094;2023-09-18T00:17:14;14.03;;;6.87;;
5845;SDS011;2949;50.778;7.094;2023-09-18T00:19:41;5.90;;;4.90;;
5845;SDS011;2949;50.778;7.094;2023-09-18T00:22:07;15.80;;;6.20;;
5845;SDS011;2949;50.778;7.094;2023-09-18T00:24:33;10.37;;;5.50;;
5845;SDS011;2949;50.778;7.094;2023-09-18T00:26:58;12.13;;;5.80;;
5845;SDS011;2949;50.778;7.094;2023-09-18T00:29:24;11.23;;;5.10;;
5845;SDS011;2949;50.778;7.094;2023-09-18T00:31:50;12.93;;;4.97;;
5845;SDS011;2949;50.778;7.094;2023-09-18T00:34:15;9.37;;;5.00;;
5845;SDS011;2949;50.778;7.094;2023-09-18T00:36:41;13.40;;;5.73;;
5845;SDS011;2949;50.778;7.094;2023-09-18T00:39:06;8.40;;;5.37;;
5845;SDS011;2949;50.778;7.094;2023-09-18T00:41:32;6.50;;;5.20;;
5845;SDS011;2949;50.778;7.094;2023-09-18T00:43:57;8.90;;;5.47;;
5845;SDS011;2949;50.778;7.094;2023-09-18T00:46:23;9.97;;;5.90;;
5845;SDS011;2949;50.778;7.094;2023-09-18T00:48:49;6.80;;;5.03;;
5845;SDS011;2949;50.778;7.094;2023-09-18T00:51:15;9.60;;;6.10;;
5845;SDS011;2949;50.778;7.094;2023-09-18T00:53:45;8.00;;;5.33;;
5845;SDS011;2949;50.778;7.094;2023-09-18T00:56:15;9.40;;;5.10;;
5845;SDS011;2949;50.778;7.094;2023-09-18T00:58:42;8.57;;;4.90;;
5845;SDS011;2949;50.778;7.094;2023-09-18T01:01:08;12.73;;;6.27;;
5845;SDS011;2949;50.778;7.094;2023-09-18T01:03:35;8.73;;;5.13;;
5845;SDS011;2949;50.778;7.094;2023-09-18T01:06:01;9.00;;;6.07;;
5845;SDS011;2949;50.778;7.094;2023-09-18T01:08:28;9.93;;;5.83;;
5845;SDS011;2949;50.778;7.094;2023-09-18T01:11:04;13.10;;;5.60;;
5845;SDS011;2949;50.778;7.094;2023-09-18T01:13:54;10.87;;;6.27;;
5845;SDS011;2949;50.778;7.094;2023-09-18T01:16:59;11.13;;;6.73;;
5845;SDS011;2949;50.778;7.094;2023-09-18T01:19:38;11.10;;;5.90;;
5845;SDS011;2949;50.778;7.094;2023-09-18T01:22:12;11.23;;;5.50;;
5845;SDS011;2949;50.778;7.094;2023-09-18T01:24:39;17.53;;;5.40;;
5845;SDS011;2949;50.778;7.094;2023-09-18T01:27:08;9.37;;;5.53;;
5845;SDS011;2949;50.778;7.094;2023-09-18T01:29:35;12.07;;;5.50;;
5845;SDS011;2949;50.778;7.094;2023-09-18T01:32:00;8.70;;;5.17;;
5845;SDS011;2949;50.778;7.094;2023-09-18T01:34:30;13.43;;;5.60;;
5845;SDS011;2949;50.778;7.094;2023-09-18T01:36:58;12.13;;;5.30;;
5845;SDS011;2949;50.778;7.094;2023-09-18T01:39:25;13.13;;;5.20;;
5845;SDS011;2949;50.778;7.094;2023-09-18T01:41:56;13.53;;;6.47;;
5845;SDS011;2949;50.778;7.094;2023-09-18T01:44:32;7.87;;;5.67;;
5845;SDS011;2949;50.778;7.094;2023-09-18T01:46:58;12.07;;;4.83;;
5845;SDS011;2949;50.778;7.094;2023-09-18T01:49:31;12.03;;;5.37;;
5845;SDS011;2949;50.778;7.094;2023-09-18T01:51:58;14.53;;;5.87;;
5845;SDS011;2949;50.778;7.094;2023-09-18T01:54:24;18.03;;;4.83;;
5845;SDS011;2949;50.778;7.094;2023-09-18T01:56:50;19.63;;;4.60;;
5845;SDS011;2949;50.778;7.094;2023-09-18T01:59:16;7.20;;;5.20;;
5845;SDS011;2949;50.778;7.094;2023-09-18T02:01:42;6.67;;;4.43;;
5845;SDS011;2949;50.778;7.094;2023-09-18T02:04:08;7.90;;;5.47;;
5845;SDS011;2949;50.778;7.094;2023-09-18T02:06:34;7.50;;;4.93;;
5845;SDS011;2949;50.778;7.094;2023-09-18T02:09:00;8.10;;;4.80;;
5845;SDS011;2949;50.778;7.094;2023-09-18T02:11:26;7.47;;;4.33;;
5845;SDS011;2949;50.778;7.094;2023-09-18T02:13:52;9.27;;;4.63;;
5845;SDS011;2949;50.778;7.094;2023-09-18T02:16:18;9.13;;;5.60;;
5845;SDS011;2949;50.778;7.094;2023-09-18T02:18:46;7.80;;;5.10;;
5845;SDS011;2949;50.778;7.094;2023-09-18T02:21:11;7.70;;;4.47;;
5845;SDS011;2949;50.778;7.094;2023-09-18T02:23:44;18.03;;;5.17;;
5845;SDS011;2949;50.778;7.094;2023-09-18T02:26:10;8.23;;;3.70;;
5845;SDS011;2949;50.778;7.094;2023-09-18T02:28:35;9.53;;;4.47;;
5845;SDS011;2949;50.778;7.094;2023-09-18T02:31:01;13.80;;;4.93;;
5845;SDS011;2949;50.778;7.094;2023-09-18T02:33:27;7.67;;;4.67;;
5845;SDS011;2949;50.778;7.094;2023-09-18T02:35:53;11.10;;;5.73;;
5845;SDS011;2949;50.778;7.094;2023-09-18T02:38:18;13.60;;;4.87;;
5845;SDS011;2949;50.778;7.094;2023-09-18T02:40:44;8.67;;;5.80;;
5845;SDS011;2949;50.778;7.094;2023-09-18T02:43:09;10.03;;;5.33;;
5845;SDS011;2949;50.778;7.094;2023-09-18T02:45:35;10.07;;;5.10;;
5845;SDS011;2949;50.778;7.094;2023-09-18T02:48:00;14.57;;;5.90;;
5845;SDS011;2949;50.778;7.094;2023-09-18T02:50:26;14.20;;;6.00;;
5845;SDS011;2949;50.778;7.094;2023-09-18T02:52:51;11.37;;;5.90;;
5845;SDS011;2949;50.778;7.094;2023-09-18T02:55:17;12.10;;;5.00;;
5845;SDS011;2949;50.778;7.094;2023-09-18T02:57:42;10.03;;;5.03;;
5845;SDS011;2949;50.778;7.094;2023-09-18T03:00:08;8.70;;;5.00;;
5845;SDS011;2949;50.778;7.094;2023-09-18T03:02:34;15.17;;;4.60;;
5845;SDS011;2949;50.778;7.094;2023-09-18T03:05:00;8.33;;;4.90;;
5845;SDS011;2949;50.778;7.094;2023-09-18T03:07:26;12.17;;;5.40;;
5845;SDS011;2949;50.778;7.094;2023-09-18T03:09:54;9.13;;;4.80;;
5845;SDS011;2949;50.778;7.094;2023-09-18T03:12:20;11.93;;;4.10;;
5845;SDS011;2949;50.778;7.094;2023-09-18T03:14:47;10.33;;;5.27;;
5845;SDS011;2949;50.778;7.094;2023-09-18T03:17:13;12.07;;;5.57;;
5845;SDS011;2949;50.778;7.094;2023-09-18T03:19:38;17.50;;;5.30;;
5845;SDS011;2949;50.778;7.094;2023-09-18T03:22:04;15.47;;;5.63;;
5845;SDS011;2949;50.778;7.094;2023-09-18T03:24:29;17.53;;;5.90;;
5845;SDS011;2949;50.778;7.094;2023-09-18T03:26:55;19.83;;;5.23;;
5845;SDS011;2949;50.778;7.094;2023-09-18T03:29:20;20.63;;;4.83;;
5845;SDS011;2949;50.778;7.094;2023-09-18T03:31:46;10.90;;;4.10;;
5845;SDS011;2949;50.778;7.094;2023-09-18T03:34:11;9.40;;;3.97;;
5845;SDS011;2949;50.778;7.094;2023-09-18T03:36:38;17.47;;;4.40;;
5845;SDS011;2949;50.778;7.094;2023-09-18T03:39:04;14.00;;;5.20;;
5845;SDS011;2949;50.778;7.094;2023-09-18T03:41:30;10.63;;;4.83;;
5845;SDS011;2949;50.778;7.094;2023-09-18T03:43:59;12.37;;;6.00;;
5845;SDS011;2949;50.778;7.094;2023-09-18T03:46:25;13.20;;;4.90;;
5845;SDS011;2949;50.778;7.094;2023-09-18T03:48:51;11.43;;;4.13;;
5845;SDS011;2949;50.778;7.094;2023-09-18T03:51:16;15.27;;;4.87;;
5845;SDS011;2949;50.778;7.094;2023-09-18T03:53:43;7.80;;;4.30;;
5845;SDS011;2949;50.778;7.094;2023-09-18T03:56:09;15.87;;;5.10;;
5845;SDS011;2949;50.778;7.094;2023-09-18T03:58:34;18.60;;;3.97;;
5845;SDS011;2949;50.778;7.094;2023-09-18T04:01:00;10.03;;;3.70;;
5845;SDS011;2949;50.778;7.094;2023-09-18T04:03:26;9.60;;;3.40;;
5845;SDS011;2949;50.778;7.094;2023-09-18T04:05:51;9.73;;;3.80;;
5845;SDS011;2949;50.778;7.094;2023-09-18T04:08:17;18.40;;;3.87;;
5845;SDS011;2949;50.778;7.094;2023-09-18T04:10:42;10.37;;;3.70;;
5845;SDS011;2949;50.778;7.094;2023-09-18T04:13:09;8.17;;;3.37;;
5845;SDS011;2949;50.778;7.094;2023-09-18T04:15:35;9.80;;;3.60;;
5845;SDS011;2949;50.778;7.094;2023-09-18T04:18:03;11.93;;;4.00;;
5845;SDS011;2949;50.778;7.094;2023-09-18T04:20:30;12.63;;;3.73;;
5845;SDS011;2949;50.778;7.094;2023-09-18T04:25:45;19.60;;;3.77;;
5845;SDS011;2949;50.778;7.094;2023-09-18T04:28:11;11.77;;;3.77;;
5845;SDS011;2949;50.778;7.094;2023-09-18T04:30:37;10.90;;;4.10;;
5845;SDS011;2949;50.778;7.094;2023-09-18T04:33:03;19.70;;;4.13;;
5845;SDS011;2949;50.778;7.094;2023-09-18T04:35:29;16.00;;;4.30;;
5845;SDS011;2949;50.778;7.094;2023-09-18T04:37:56;14.80;;;3.57;;
5845;SDS011;2949;50.778;7.094;2023-09-18T04:40:23;19.03;;;3.80;;
5845;SDS011;2949;50.778;7.094;2023-09-18T04:42:56;14.43;;;4.20;;
5845;SDS011;2949;50.778;7.094;2023-09-18T04:45:23;23.30;;;4.13;;
5845;SDS011;2949;50.778;7.094;2023-09-18T04:47:49;12.03;;;3.67;;
5845;SDS011;2949;50.778;7.094;2023-09-18T04:50:14;21.37;;;4.43;;
5845;SDS011;2949;50.778;7.094;2023-09-18T04:52:40;14.63;;;3.77;;
5845;SDS011;2949;50.778;7.094;2023-09-18T04:55:06;12.70;;;3.77;;
5845;SDS011;2949;50.778;7.094;2023-09-18T04:57:31;8.63;;;3.33;;
5845;SDS011;2949;50.778;7.094;2023-09-18T04:59:57;6.77;;;3.47;;
5845;SDS011;2949;50.778;7.094;2023-09-18T05:02:22;13.07;;;3.87;;
5845;SDS011;2949;50.778;7.094;2023-09-18T05:04:50;15.10;;;5.10;;
5845;SDS011;2949;50.778;7.094;2023-09-18T05:07:16;15.70;;;3.97;;
5845;SDS011;2949;50.778;7.094;2023-09-18T05:09:41;15.60;;;4.27;;
5845;SDS011;2949;50.778;7.094;2023-09-18T05:12:08;26.90;;;4.30;;
5845;SDS011;2949;50.778;7.094;2023-09-18T05:14:39;9.27;;;2.93;;
5845;SDS011;2949;50.778;7.094;2023-09-18T05:17:05;9.23;;;3.50;;
5845;SDS011;2949;50.778;7.094;2023-09-18T05:19:30;18.30;;;3.83;;
5845;SDS011;2949;50.778;7.094;2023-09-18T05:21:56;11.87;;;3.60;;
5845;SDS011;2949;50.778;7.094;2023-09-18T05:24:21;13.03;;;3.70;;
5845;SDS011;2949;50.778;7.094;2023-09-18T05:26:52;6.30;;;3.57;;
5845;SDS011;2949;50.778;7.094;2023-09-18T05:29:18;12.80;;;3.23;;
5845;SDS011;2949;50.778;7.094;2023-09-18T05:31:43;14.47;;;3.60;;
5845;SDS011;2949;50.778;7.094;2023-09-18T05:34:10;9.13;;;2.93;;
5845;SDS011;2949;50.778;7.094;2023-09-18T05:36:36;9.70;;;3.50;;
5845;SDS011;2949;50.778;7.094;2023-09-18T05:39:02;11.80;;;2.80;;
5845;SDS011;2949;50.778;7.094;2023-09-18T05:41:28;6.03;;;3.00;;
5845;SDS011;2949;50.778;7.094;2023-09-18T05:43:54;6.40;;;2.90;;
5845;SDS011;2949;50.778;7.094;2023-09-18T05:46:21;9.03;;;2.83;;
5845;SDS011;2949;50.778;7.094;2023-09-18T05:48:46;2.97;;;2.03;;
5845;SDS011;2949;50.778;7.094;2023-09-18T05:51:12;9.73;;;2.40;;
5845;SDS011;2949;50.778;7.094;2023-09-18T05:53:37;6.83;;;2.70;;
5845;SDS011;2949;50.778;7.094;2023-09-18T05:56:03;8.43;;;2.40;;
5845;SDS011;2949;50.778;7.094;2023-09-18T05:58:29;10.50;;;2.63;;
5845;SDS011;2949;50.778;7.094;2023-09-18T06:00:58;8.60;;;2.10;;
5845;SDS011;2949;50.778;7.094;2023-09-18T06:03:25;9.60;;;2.43;;
5845;SDS011;2949;50.778;7.094;2023-09-18T06:05:51;8.10;;;2.63;;
5845;SDS011;2949;50.778;7.094;2023-09-18T06:08:17;4.67;;;2.30;;
5845;SDS011;2949;50.778;7.094;2023-09-18T06:10:44;10.20;;;2.60;;
5845;SDS011;2949;50.778;7.094;2023-09-18T06:13:10;9.53;;;2.07;;
5845;SDS011;2949;50.778;7.094;2023-09-18T06:15:35;3.93;;;2.07;;
5845;SDS011;2949;50.778;7.094;2023-09-18T06:18:01;7.77;;;1.90;;
5845;SDS011;2949;50.778;7.094;2023-09-18T06:20:28;7.97;;;1.60;;
5845;SDS011;2949;50.778;7.094;2023-09-18T06:22:54;11.97;;;1.70;;
5845;SDS011;2949;50.778;7.094;2023-09-18T06:25:19;9.67;;;1.83;;
5845;SDS011;2949;50.778;7.094;2023-09-18T06:27:45;7.50;;;1.53;;
5845;SDS011;2949;50.778;7.094;2023-09-18T06:30:12;4.87;;;1.63;;
5845;SDS011;2949;50.778;7.094;2023-09-18T06:32:38;2.10;;;1.50;;
5845;SDS011;2949;50.778;7.094;2023-09-18T06:35:03;3.50;;;1.37;;
5845;SDS011;2949;50.778;7.094;2023-09-18T06:37:29;3.40;;;1.80;;
5845;SDS011;2949;50.778;7.094;2023-09-18T06:39:55;7.30;;;2.67;;
5845;SDS011;2949;50.778;7.094;2023-09-18T06:42:21;10.03;;;2.40;;
5845;SDS011;2949;50.778;7.094;2023-09-18T06:44:47;7.50;;;1.43;;
5845;SDS011;2949;50.778;7.094;2023-09-18T06:47:13;6.10;;;2.00;;
5845;SDS011;2949;50.778;7.094;2023-09-18T06:49:39;8.60;;;1.80;;
5845;SDS011;2949;50.778;7.094;2023-09-18T06:52:06;8.37;;;1.67;;
5845;SDS011;2949;50.778;7.094;2023-09-18T06:54:32;8.67;;;1.70;;
5845;SDS011;2949;50.778;7.094;2023-09-18T06:56:58;8.80;;;1.97;;
5845;SDS011;2949;50.778;7.094;2023-09-18T06:59:23;3.67;;;1.50;;
5845;SDS011;2949;50.778;7.094;2023-09-18T07:01:49;9.30;;;1.40;;
5845;SDS011;2949;50.778;7.094;2023-09-18T07:04:14;4.80;;;1.53;;
5845;SDS011;2949;50.778;7.094;2023-09-18T07:06:40;7.30;;;1.40;;
5845;SDS011;2949;50.778;7.094;2023-09-18T07:09:05;7.70;;;1.90;;
5845;SDS011;2949;50.778;7.094;2023-09-18T07:11:32;4.30;;;1.53;;
5845;SDS011;2949;50.778;7.094;2023-09-18T07:13:58;6.30;;;1.40;;
5845;SDS011;2949;50.778;7.094;2023-09-18T07:16:24;3.77;;;1.40;;
5845;SDS011;2949;50.778;7.094;2023-09-18T07:18:50;6.67;;;1.10;;
5845;SDS011;2949;50.778;7.094;2023-09-18T07:21:15;1.40;;;1.10;;
5845;SDS011;2949;50.778;7.094;2023-09-18T07:23:41;4.13;;;1.37;;
5845;SDS011;2949;50.778;7.094;2023-09-18T07:26:06;6.30;;;1.30;;
5845;SDS011;2949;50.778;7.094;2023-09-18T07:28:32;4.23;;;1.17;;
5845;SDS011;2949;50.778;7.094;2023-09-18T07:31:03;7.17;;;1.20;;
5845;SDS011;2949;50.778;7.094;2023-09-18T07:33:32;2.87;;;1.40;;
5845;SDS011;2949;50.778;7.094;2023-09-18T07:35:57;2.80;;;1.00;;
5845;SDS011;2949;50.778;7.094;2023-09-18T07:38:23;5.90;;;1.50;;
5845;SDS011;2949;50.778;7.094;2023-09-18T07:40:49;6.37;;;1.50;;
5845;SDS011;2949;50.778;7.094;2023-09-18T07:43:15;6.20;;;1.13;;
5845;SDS011;2949;50.778;7.094;2023-09-18T07:45:41;4.87;;;1.70;;
5845;SDS011;2949;50.778;7.094;2023-09-18T07:48:06;6.90;;;1.17;;
5845;SDS011;2949;50.778;7.094;2023-09-18T07:50:33;3.90;;;1.27;;
5845;SDS011;2949;50.778;7.094;2023-09-18T07:53:02;3.30;;;1.20;;
5845;SDS011;2949;50.778;7.094;2023-09-18T07:55:27;3.00;;;1.27;;
5845;SDS011;2949;50.778;7.094;2023-09-18T07:57:54;2.07;;;1.20;;
5845;SDS011;2949;50.778;7.094;2023-09-18T08:00:20;5.33;;;1.30;;
5845;SDS011;2949;50.778;7.094;2023-09-18T08:02:47;1.43;;;1.33;;
5845;SDS011;2949;50.778;7.094;2023-09-18T08:05:15;5.30;;;1.13;;
5845;SDS011;2949;50.778;7.094;2023-09-18T08:07:41;5.40;;;1.43;;
5845;SDS011;2949;50.778;7.094;2023-09-18T08:10:07;7.67;;;1.47;;
5845;SDS011;2949;50.778;7.094;2023-09-18T08:12:33;2.87;;;1.10;;
5845;SDS011;2949;50.778;7.094;2023-09-18T08:14:59;1.70;;;1.20;;
5845;SDS011;2949;50.778;7.094;2023-09-18T08:17:25;8.70;;;1.53;;
5845;SDS011;2949;50.778;7.094;2023-09-18T08:19:51;4.30;;;1.00;;
5845;SDS011;2949;50.778;7.094;2023-09-18T08:22:17;4.27;;;1.50;;
5845;SDS011;2949;50.778;7.094;2023-09-18T08:24:44;3.73;;;1.40;;
5845;SDS011;2949;50.778;7.094;2023-09-18T08:27:10;1.20;;;1.03;;
5845;SDS011;2949;50.778;7.094;2023-09-18T08:29:38;2.70;;;0.90;;
5845;SDS011;2949;50.778;7.094;2023-09-18T08:32:03;3.13;;;1.13;;
5845;SDS011;2949;50.778;7.094;2023-09-18T08:34:29;3.47;;;1.47;;
5845;SDS011;2949;50.778;7.094;2023-09-18T08:36:54;7.87;;;1.40;;
5845;SDS011;2949;50.778;7.094;2023-09-18T08:39:20;2.67;;;1.30;;
5845;SDS011;2949;50.778;7.094;2023-09-18T08:41:45;1.30;;;1.20;;
5845;SDS011;2949;50.778;7.094;2023-09-18T08:44:16;2.20;;;1.13;;
5845;SDS011;2949;50.778;7.094;2023-09-18T08:46:42;2.10;;;1.33;;
5845;SDS011;2949;50.778;7.094;2023-09-18T08:49:09;6.13;;;1.00;;
5845;SDS011;2949;50.778;7.094;2023-09-18T08:51:36;4.93;;;1.20;;
5845;SDS011;2949;50.778;7.094;2023-09-18T08:54:03;1.40;;;1.30;;
5845;SDS011;2949;50.778;7.094;2023-09-18T08:56:30;5.07;;;1.27;;
5845;SDS011;2949;50.778;7.094;2023-09-18T08:58:57;2.30;;;1.33;;
5845;SDS011;2949;50.778;7.094;2023-09-18T09:01:24;3.43;;;1.33;;
5845;SDS011;2949;50.778;7.094;2023-09-18T09:03:50;8.07;;;1.10;;
5845;SDS011;2949;50.778;7.094;2023-09-18T09:06:16;4.03;;;1.17;;
5845;SDS011;2949;50.778;7.094;2023-09-18T09:08:42;4.10;;;1.53;;
5845;SDS011;2949;50.778;7.094;2023-09-18T09:11:07;1.47;;;1.10;;
5845;SDS011;2949;50.778;7.094;2023-09-18T09:13:33;2.70;;;1.20;;
5845;SDS011;2949;50.778;7.094;2023-09-18T09:15:59;6.80;;;1.60;;
5845;SDS011;2949;50.778;7.094;2023-09-18T09:18:28;4.33;;;1.73;;
5845;SDS011;2949;50.778;7.094;2023-09-18T09:20:57;5.90;;;1.40;;
5845;SDS011;2949;50.778;7.094;2023-09-18T09:23:25;2.40;;;0.83;;
5845;SDS011;2949;50.778;7.094;2023-09-18T09:25:53;4.57;;;1.40;;
5845;SDS011;2949;50.778;7.094;2023-09-18T09:28:29;1.33;;;0.97;;
5845;SDS011;2949;50.778;7.094;2023-09-18T09:31:01;6.50;;;1.70;;
5845;SDS011;2949;50.778;7.094;2023-09-18T09:33:28;1.30;;;0.90;;
5845;SDS011;2949;50.778;7.094;2023-09-18T09:35:54;3.40;;;1.00;;
5845;SDS011;2949;50.778;7.094;2023-09-18T09:38:22;4.20;;;1.30;;
5845;SDS011;2949;50.778;7.094;2023-09-18T09:40:57;2.90;;;1.17;;
5845;SDS011;2949;50.778;7.094;2023-09-18T09:43:24;1.73;;;1.00;;
5845;SDS011;2949;50.778;7.094;2023-09-18T09:45:58;8.73;;;1.17;;
5845;SDS011;2949;50.778;7.094;2023-09-18T09:48:25;1.17;;;1.00;;
5845;SDS011;2949;50.778;7.094;2023-09-18T09:50:51;1.73;;;1.37;;
5845;SDS011;2949;50.778;7.094;2023-09-18T09:53:18;3.70;;;1.30;;
5845;SDS011;2949;50.778;7.094;2023-09-18T09:55:44;5.27;;;1.20;;
5845;SDS011;2949;50.778;7.094;2023-09-18T09:58:10;8.40;;;1.23;;
5845;SDS011;2949;50.778;7.094;2023-09-18T10:00:41;4.77;;;1.60;;
5845;SDS011;2949;50.778;7.094;2023-09-18T10:03:15;3.63;;;1.13;;
5845;SDS011;2949;50.778;7.094;2023-09-18T10:05:43;3.77;;;0.97;;
5845;SDS011;2949;50.778;7.094;2023-09-18T10:08:21;2.27;;;1.20;;
5845;SDS011;2949;50.778;7.094;2023-09-18T10:10:49;3.90;;;1.17;;
5845;SDS011;2949;50.778;7.094;2023-09-18T10:13:18;2.83;;;0.83;;
5845;SDS011;2949;50.778;7.094;2023-09-18T10:16:05;3.07;;;0.93;;
5845;SDS011;2949;50.778;7.094;2023-09-18T10:18:37;4.10;;;0.70;;
5845;SDS011;2949;50.778;7.094;2023-09-18T10:21:09;3.70;;;1.00;;
5845;SDS011;2949;50.778;7.094;2023-09-18T10:26:57;2.47;;;0.83;;
5845;SDS011;2949;50.778;7.094;2023-09-18T10:29:24;2.60;;;1.17;;
5845;SDS011;2949;50.778;7.094;2023-09-18T10:31:50;2.70;;;1.13;;
5845;SDS011;2949;50.778;7.094;2023-09-18T10:34:18;4.63;;;1.00;;
5845;SDS011;2949;50.778;7.094;2023-09-18T10:36:46;1.87;;;0.80;;
5845;SDS011;2949;50.778;7.094;2023-09-18T10:39:13;1.50;;;1.20;;
5845;SDS011;2949;50.778;7.094;2023-09-18T10:41:39;1.80;;;1.00;;
5845;SDS011;2949;50.778;7.094;2023-09-18T10:44:06;6.97;;;3.50;;
5845;SDS011;2949;50.778;7.094;2023-09-18T10:46:33;2.83;;;0.77;;
5845;SDS011;2949;50.778;7.094;2023-09-18T10:48:59;2.00;;;0.90;;
5845;SDS011;2949;50.778;7.094;2023-09-18T10:51:25;4.30;;;0.90;;
5845;SDS011;2949;50.778;7.094;2023-09-18T10:53:52;1.80;;;0.80;;
5845;SDS011;2949;50.778;7.094;2023-09-18T10:56:20;2.30;;;1.20;;
5845;SDS011;2949;50.778;7.094;2023-09-18T10:58:46;1.73;;;1.23;;
5845;SDS011;2949;50.778;7.094;2023-09-18T11:01:20;4.10;;;0.63;;
5845;SDS011;2949;50.778;7.094;2023-09-18T11:03:50;0.70;;;0.70;;
5845;SDS011;2949;50.778;7.094;2023-09-18T11:06:15;3.10;;;0.60;;
5845;SDS011;2949;50.778;7.094;2023-09-18T11:08:46;3.00;;;1.00;;
5845;SDS011;2949;50.778;7.094;2023-09-18T11:11:14;2.37;;;0.70;;
5845;SDS011;2949;50.778;7.094;2023-09-18T11:13:44;1.10;;;1.00;;
5845;SDS011;2949;50.778;7.094;2023-09-18T11:16:19;4.50;;;0.87;;
5845;SDS011;2949;50.778;7.094;2023-09-18T11:21:32;1.33;;;1.00;;
5845;SDS011;2949;50.778;7.094;2023-09-18T11:24:00;1.63;;;1.00;;
5845;SDS011;2949;50.778;7.094;2023-09-18T11:26:32;1.53;;;0.73;;
5845;SDS011;2949;50.778;7.094;2023-09-18T11:29:06;2.10;;;0.80;;
5845;SDS011;2949;50.778;7.094;2023-09-18T11:31:40;0.50;;;0.40;;
5845;SDS011;2949;50.778;7.094;2023-09-18T11:34:14;1.20;;;0.80;;
5845;SDS011;2949;50.778;7.094;2023-09-18T11:37:00;2.93;;;1.53;;
5845;SDS011;2949;50.778;7.094;2023-09-18T11:39:33;10.47;;;0.97;;
5845;SDS011;2949;50.778;7.094;2023-09-18T11:42:12;3.00;;;1.20;;
5845;SDS011;2949;50.778;7.094;2023-09-18T11:44:39;2.00;;;0.70;;
5845;SDS011;2949;50.778;7.094;2023-09-18T11:47:12;1.00;;;1.00;;
5845;SDS011;2949;50.778;7.094;2023-09-18T11:52:17;1.00;;;1.00;;
5845;SDS011;2949;50.778;7.094;2023-09-18T11:54:44;4.70;;;1.67;;
5845;SDS011;2949;50.778;7.094;2023-09-18T11:57:11;1.40;;;1.30;;
5845;SDS011;2949;50.778;7.094;2023-09-18T11:59:39;1.37;;;0.83;;
5845;SDS011;2949;50.778;7.094;2023-09-18T12:02:11;2.30;;;1.20;;
5845;SDS011;2949;50.778;7.094;2023-09-18T12:04:52;2.50;;;0.80;;
5845;SDS011;2949;50.778;7.094;2023-09-18T12:07:21;1.10;;;0.80;;
5845;SDS011;2949;50.778;7.094;2023-09-18T12:09:47;4.23;;;1.07;;
5845;SDS011;2949;50.778;7.094;2023-09-18T12:12:13;2.10;;;1.00;;
5845;SDS011;2949;50.778;7.094;2023-09-18T12:14:40;2.63;;;0.93;;
5845;SDS011;2949;50.778;7.094;2023-09-18T12:17:13;1.67;;;0.90;;
5845;SDS011;2949;50.778;7.094;2023-09-18T12:19:49;2.10;;;1.00;;
5845;SDS011;2949;50.778;7.094;2023-09-18T12:22:22;4.67;;;1.10;;
5845;SDS011;2949;50.778;7.094;2023-09-18T12:27:36;1.87;;;0.90;;
5845;SDS011;2949;50.778;7.094;2023-09-18T12:30:03;4.30;;;0.90;;
5845;SDS011;2949;50.778;7.094;2023-09-18T12:32:32;1.90;;;1.10;;
5845;SDS011;2949;50.778;7.094;2023-09-18T12:34:58;1.77;;;1.10;;
5845;SDS011;2949;50.778;7.094;2023-09-18T12:37:23;1.00;;;0.87;;
5845;SDS011;2949;50.778;7.094;2023-09-18T12:39:50;3.33;;;1.00;;
5845;SDS011;2949;50.778;7.094;2023-09-18T12:42:17;1.50;;;1.40;;
5845;SDS011;2949;50.778;7.094;2023-09-18T12:44:44;2.10;;;0.80;;
5845;SDS011;2949;50.778;7.094;2023-09-18T12:47:12;2.43;;;1.53;;
5845;SDS011;2949;50.778;7.094;2023-09-18T12:49:37;3.07;;;0.80;;
5845;SDS011;2949;50.778;7.094;2023-09-18T12:52:04;4.03;;;1.20;;
5845;SDS011;2949;50.778;7.094;2023-09-18T12:57:10;4.07;;;0.90;;
5845;SDS011;2949;50.778;7.094;2023-09-18T12:59:40;2.53;;;1.03;;
5845;SDS011;2949;50.778;7.094;2023-09-18T13:02:05;1.20;;;1.03;;
5845;SDS011;2949;50.778;7.094;2023-09-18T13:04:32;2.30;;;0.67;;
5845;SDS011;2949;50.778;7.094;2023-09-18T13:07:14;2.00;;;0.83;;
5845;SDS011;2949;50.778;7.094;2023-09-18T13:09:43;1.13;;;1.03;;
5845;SDS011;2949;50.778;7.094;2023-09-18T13:12:08;1.47;;;1.00;;
5845;SDS011;2949;50.778;7.094;2023-09-18T13:17:51;1.67;;;1.10;;
5845;SDS011;2949;50.778;7.094;2023-09-18T13:20:20;1.27;;;1.17;;
5845;SDS011;2949;50.778;7.094;2023-09-18T13:22:50;0.97;;;0.87;;
5845;SDS011;2949;50.778;7.094;2023-09-18T13:25:20;4.40;;;1.00;;
5845;SDS011;2949;50.778;7.094;2023-09-18T13:27:51;8.47;;;2.00;;
5845;SDS011;2949;50.778;7.094;2023-09-18T13:30:17;1.20;;;1.10;;
5845;SDS011;2949;50.778;7.094;2023-09-18T13:32:45;3.70;;;0.93;;
5845;SDS011;2949;50.778;7.094;2023-09-18T13:35:14;2.40;;;1.03;;
5845;SDS011;2949;50.778;7.094;2023-09-18T13:37:41;3.67;;;1.10;;
5845;SDS011;2949;50.778;7.094;2023-09-18T13:40:07;1.23;;;0.87;;
5845;SDS011;2949;50.778;7.094;2023-09-18T13:42:37;2.07;;;0.93;;
5845;SDS011;2949;50.778;7.094;2023-09-18T13:45:04;1.23;;;0.83;;
5845;SDS011;2949;50.778;7.094;2023-09-18T13:47:31;3.40;;;1.07;;
5845;SDS011;2949;50.778;7.094;2023-09-18T13:49:58;3.90;;;1.30;;
5845;SDS011;2949;50.778;7.094;2023-09-18T13:52:28;3.33;;;1.30;;
5845;SDS011;2949;50.778;7.094;2023-09-18T13:54:55;1.57;;;1.00;;
5845;SDS011;2949;50.778;7.094;2023-09-18T13:57:21;6.20;;;1.00;;
5845;SDS011;2949;50.778;7.094;2023-09-18T13:59:47;2.10;;;0.97;;
5845;SDS011;2949;50.778;7.094;2023-09-18T14:02:14;2.10;;;1.23;;
5845;SDS011;2949;50.778;7.094;2023-09-18T14:04:40;2.77;;;0.70;;
5845;SDS011;2949;50.778;7.094;2023-09-18T14:07:07;1.77;;;1.20;;
5845;SDS011;2949;50.778;7.094;2023-09-18T14:09:33;1.70;;;1.10;;
5845;SDS011;2949;50.778;7.094;2023-09-18T14:11:59;1.60;;;1.33;;
5845;SDS011;2949;50.778;7.094;2023-09-18T14:14:25;1.47;;;0.87;;
5845;SDS011;2949;50.778;7.094;2023-09-18T14:16:51;2.87;;;1.10;;
5845;SDS011;2949;50.778;7.094;2023-09-18T14:19:17;3.63;;;1.10;;
5845;SDS011;2949;50.778;7.094;2023-09-18T14:21:43;1.63;;;1.00;;
5845;SDS011;2949;50.778;7.094;2023-09-18T14:24:08;2.53;;;0.80;;
5845;SDS011;2949;50.778;7.094;2023-09-18T14:26:34;2.30;;;0.93;;
5845;SDS011;2949;50.778;7.094;2023-09-18T14:29:06;1.97;;;1.10;;
5845;SDS011;2949;50.778;7.094;2023-09-18T14:31:36;1.40;;;1.10;;
5845;SDS011;2949;50.778;7.094;2023-09-18T14:34:01;1.07;;;0.70;;
5845;SDS011;2949;50.778;7.094;2023-09-18T14:36:27;1.73;;;0.90;;
5845;SDS011;2949;50.778;7.094;2023-09-18T14:38:54;1.50;;;0.97;;
5845;SDS011;2949;50.778;7.094;2023-09-18T14:41:20;1.43;;;1.00;;
5845;SDS011;2949;50.778;7.094;2023-09-18T14:43:46;2.73;;;0.80;;
5845;SDS011;2949;50.778;7.094;2023-09-18T14:46:12;3.50;;;1.00;;
5845;SDS011;2949;50.778;7.094;2023-09-18T14:48:38;2.17;;;1.00;;
5845;SDS011;2949;50.778;7.094;2023-09-18T14:51:04;6.47;;;1.00;;
5845;SDS011;2949;50.778;7.094;2023-09-18T14:53:29;3.17;;;1.47;;
5845;SDS011;2949;50.778;7.094;2023-09-18T14:55:55;1.27;;;1.03;;
5845;SDS011;2949;50.778;7.094;2023-09-18T14:58:21;1.07;;;0.83;;
5845;SDS011;2949;50.778;7.094;2023-09-18T15:00:48;4.20;;;1.37;;
5845;SDS011;2949;50.778;7.094;2023-09-18T15:03:14;2.10;;;0.97;;
5845;SDS011;2949;50.778;7.094;2023-09-18T15:05:40;1.13;;;1.03;;
5845;SDS011;2949;50.778;7.094;2023-09-18T15:08:06;1.43;;;0.87;;
5845;SDS011;2949;50.778;7.094;2023-09-18T15:10:32;2.37;;;1.10;;
5845;SDS011;2949;50.778;7.094;2023-09-18T15:12:57;1.23;;;1.03;;
5845;SDS011;2949;50.778;7.094;2023-09-18T15:15:23;1.23;;;1.13;;
5845;SDS011;2949;50.778;7.094;2023-09-18T15:17:49;2.60;;;1.23;;
5845;SDS011;2949;50.778;7.094;2023-09-18T15:20:17;4.07;;;1.07;;
5845;SDS011;2949;50.778;7.094;2023-09-18T15:22:43;4.83;;;1.10;;
5845;SDS011;2949;50.778;7.094;2023-09-18T15:25:09;2.20;;;0.97;;
5845;SDS011;2949;50.778;7.094;2023-09-18T15:27:36;2.87;;;1.03;;
5845;SDS011;2949;50.778;7.094;2023-09-18T15:30:03;3.07;;;1.40;;
5845;SDS011;2949;50.778;7.094;2023-09-18T15:32:30;1.20;;;1.03;;